createdAt,value
2018-11-01T00:00:23.924Z,12.04
2018-11-01T00:02:54.533Z,11.97
2018-11-01T00:05:25.209Z,11.89
2018-11-01T00:07:55.865Z,11.91
2018-11-01T00:10:26.500Z,12.00
2018-11-01T00:12:57.154Z,11.92
2018-11-01T00:15:27.826Z,11.92
2018-11-01T00:17:58.730Z,11.78
2018-11-01T00:20:29.590Z,11.72
2018-11-01T00:23:00.343Z,11.63
2018-11-01T00:25:31.239Z,11.55
2018-11-01T00:28:02.058Z,11.43
2018-11-01T00:30:32.865Z,11.36
2018-11-01T00:33:03.696Z,11.25
2018-11-01T00:35:34.707Z,11.28
2018-11-01T00:38:05.977Z,11.27
2018-11-01T00:40:36.841Z,11.13
2018-11-01T00:43:07.813Z,11.08
2018-11-01T00:45:38.507Z,10.99
2018-11-01T00:48:09.142Z,10.96
2018-11-01T00:50:39.879Z,10.90
2018-11-01T00:53:10.508Z,10.82
2018-11-01T00:55:41.294Z,10.81
2018-11-01T00:58:12.008Z,10.82
2018-11-01T01:00:42.712Z,10.78
2018-11-01T01:03:13.394Z,10.75
2018-11-01T01:05:44.146Z,10.80
2018-11-01T01:08:14.767Z,10.84
2018-11-01T01:10:45.450Z,10.97
2018-11-01T01:13:16.052Z,11.06
2018-11-01T01:15:46.678Z,11.05
2018-11-01T01:18:17.335Z,11.02
2018-11-01T01:20:48.027Z,11.07
2018-11-01T01:23:18.711Z,11.24
2018-11-01T01:25:49.402Z,11.18
2018-11-01T01:28:20.020Z,11.03
2018-11-01T01:30:50.654Z,10.95
2018-11-01T01:33:21.295Z,10.89
2018-11-01T01:35:51.923Z,10.85
2018-11-01T01:38:22.669Z,10.81
2018-11-01T01:40:53.334Z,10.77
2018-11-01T01:43:24.026Z,10.72
2018-11-01T01:45:54.680Z,10.67
2018-11-01T01:48:25.320Z,10.63
2018-11-01T01:50:56.007Z,10.60
2018-11-01T01:53:26.608Z,10.59
2018-11-01T01:55:57.303Z,10.59
2018-11-01T01:58:27.935Z,10.56
2018-11-01T02:00:58.698Z,10.53
2018-11-01T02:03:29.342Z,10.58
2018-11-01T02:05:59.985Z,10.80
2018-11-01T02:08:30.691Z,10.83
2018-11-01T02:11:01.423Z,10.82
2018-11-01T02:13:32.084Z,10.83
2018-11-01T02:16:02.673Z,10.73
2018-11-01T02:18:33.347Z,10.62
2018-11-01T02:21:03.941Z,10.54
2018-11-01T02:23:34.602Z,10.52
2018-11-01T02:26:05.301Z,10.44
2018-11-01T02:28:35.946Z,10.32
2018-11-01T02:31:06.647Z,10.27
2018-11-01T02:33:37.303Z,10.31
2018-11-01T02:36:08.065Z,10.27
2018-11-01T02:38:38.882Z,10.23
2018-11-01T02:41:09.664Z,10.19
2018-11-01T02:43:40.299Z,10.26
2018-11-01T02:46:10.993Z,10.22
2018-11-01T02:48:41.723Z,10.14
2018-11-01T02:51:12.343Z,10.08
2018-11-01T02:53:42.947Z,9.99
2018-11-01T02:56:13.609Z,10.09
2018-11-01T02:58:44.264Z,10.06
2018-11-01T03:01:18.325Z,10.07
2018-11-01T03:03:50.235Z,9.93
2018-11-01T03:06:20.939Z,9.80
2018-11-01T03:08:51.598Z,9.69
2018-11-01T03:11:22.274Z,9.60
2018-11-01T03:13:52.953Z,9.54
2018-11-01T03:16:23.572Z,9.52
2018-11-01T03:18:54.337Z,9.47
2018-11-01T03:21:25.007Z,9.43
2018-11-01T03:23:55.650Z,9.40
2018-11-01T03:26:26.412Z,9.39
2018-11-01T03:28:57.056Z,9.37
2018-11-01T03:31:27.638Z,9.24
2018-11-01T03:33:58.335Z,9.05
2018-11-01T03:36:28.968Z,9.02
2018-11-01T03:38:59.758Z,9.04
2018-11-01T03:41:30.350Z,9.23
2018-11-01T03:44:01.040Z,9.26
2018-11-01T03:46:31.673Z,9.08
2018-11-01T03:49:02.378Z,8.98
2018-11-01T03:51:33.399Z,8.90
2018-11-01T03:54:04.055Z,8.94
2018-11-01T03:56:34.722Z,8.93
2018-11-01T03:59:05.447Z,8.84
2018-11-01T04:01:36.082Z,8.79
2018-11-01T04:04:07.377Z,8.77
2018-11-01T04:06:37.989Z,8.68
2018-11-01T04:09:11.952Z,8.71
2018-11-01T04:11:42.544Z,8.67
2018-11-01T04:14:13.211Z,8.80
2018-11-01T04:16:43.902Z,8.85
2018-11-01T04:19:14.521Z,8.93
2018-11-01T04:21:48.436Z,8.97
2018-11-01T04:24:19.065Z,9.00
2018-11-01T04:26:49.708Z,8.94
2018-11-01T04:29:20.357Z,8.90
2018-11-01T04:31:51.002Z,8.84
2018-11-01T04:34:21.667Z,8.85
2018-11-01T04:36:52.317Z,8.84
2018-11-01T04:39:22.991Z,8.84
2018-11-01T04:41:53.665Z,8.85
2018-11-01T04:44:24.391Z,8.82
2018-11-01T04:46:55.156Z,8.76
2018-11-01T04:49:25.746Z,8.68
2018-11-01T04:51:56.427Z,8.85
2018-11-01T04:54:27.080Z,9.09
2018-11-01T04:56:57.778Z,9.34
2018-11-01T04:59:28.386Z,9.40
2018-11-01T05:01:59.061Z,9.49
2018-11-01T05:04:29.660Z,9.69
2018-11-01T05:07:00.338Z,9.61
2018-11-01T05:09:30.969Z,9.70
2018-11-01T05:12:01.664Z,9.67
2018-11-01T05:14:32.318Z,9.59
2018-11-01T05:17:02.985Z,9.53
2018-11-01T05:19:33.607Z,9.51
2018-11-01T05:22:04.423Z,9.61
2018-11-01T05:24:35.051Z,9.68
2018-11-01T05:27:06.042Z,9.72
2018-11-01T05:29:36.766Z,9.78
2018-11-01T05:32:07.411Z,9.77
2018-11-01T05:34:38.086Z,9.78
2018-11-01T05:37:08.887Z,9.68
2018-11-01T05:39:39.539Z,9.54
2018-11-01T05:42:10.245Z,9.57
2018-11-01T05:44:40.826Z,9.37
2018-11-01T05:47:11.463Z,9.55
2018-11-01T05:49:42.164Z,9.59
2018-11-01T05:52:12.840Z,9.55
2018-11-01T05:54:43.527Z,9.49
2018-11-01T05:57:14.164Z,9.32
2018-11-01T05:59:44.860Z,9.21
2018-11-01T06:02:22.191Z,9.11
2018-11-01T06:04:52.806Z,9.02
2018-11-01T06:07:30.537Z,8.94
2018-11-01T06:10:01.234Z,8.89
2018-11-01T06:12:31.945Z,8.82
2018-11-01T06:15:02.468Z,8.68
2018-11-01T06:17:33.111Z,8.61
2018-11-01T06:20:03.859Z,8.57
2018-11-01T06:22:34.523Z,8.64
2018-11-01T06:25:05.598Z,8.66
2018-11-01T06:27:36.417Z,8.86
2018-11-01T06:30:16.788Z,8.89
2018-11-01T06:32:48.096Z,8.93
2018-11-01T06:35:31.629Z,8.83
2018-11-01T06:38:02.366Z,8.78
2018-11-01T06:40:33.014Z,8.71
2018-11-01T06:43:03.676Z,8.70
2018-11-01T06:45:34.345Z,8.74
2018-11-01T06:48:05.402Z,8.82
2018-11-01T06:50:36.097Z,8.88
2018-11-01T06:53:07.145Z,8.86
2018-11-01T06:55:37.756Z,8.89
2018-11-01T06:58:08.427Z,8.98
2018-11-01T07:00:39.066Z,8.99
2018-11-01T07:03:09.698Z,9.07
2018-11-01T07:05:40.364Z,9.14
2018-11-01T07:08:10.987Z,9.07
2018-11-01T07:10:41.670Z,9.09
2018-11-01T07:13:12.268Z,9.24
2018-11-01T07:15:43.012Z,9.31
2018-11-01T07:18:13.653Z,9.34
2018-11-01T07:20:44.268Z,9.37
2018-11-01T07:23:14.932Z,9.45
2018-11-01T07:25:45.652Z,9.57
2018-11-01T07:28:16.439Z,9.68
2018-11-01T07:30:47.162Z,9.75
2018-11-01T07:33:18.150Z,9.84
2018-11-01T07:35:48.977Z,9.97
2018-11-01T07:38:19.760Z,10.02
2018-11-01T07:40:50.465Z,10.18
2018-11-01T07:43:21.175Z,10.28
2018-11-01T07:45:51.925Z,10.36
2018-11-01T07:48:22.591Z,10.48
2018-11-01T07:50:53.259Z,10.54
2018-11-01T07:53:24.030Z,10.69
2018-11-01T07:55:54.762Z,10.84
2018-11-01T07:58:25.505Z,11.00
2018-11-01T08:00:56.140Z,11.11
2018-11-01T08:03:26.819Z,11.28
2018-11-01T08:05:57.629Z,11.41
2018-11-01T08:08:28.339Z,11.60
2018-11-01T08:10:59.176Z,11.88
2018-11-01T08:13:29.880Z,12.20
2018-11-01T08:16:00.589Z,12.47
2018-11-01T08:18:31.256Z,12.66
2018-11-01T08:21:01.983Z,12.79
2018-11-01T08:23:32.626Z,12.76
2018-11-01T08:26:03.333Z,12.70
2018-11-01T08:28:34.047Z,12.63
2018-11-01T08:31:05.138Z,12.59
2018-11-01T08:33:35.931Z,12.56
2018-11-01T08:36:06.809Z,12.51
2018-11-01T08:38:37.559Z,12.47
2018-11-01T08:41:08.256Z,12.43
2018-11-01T08:43:38.992Z,12.35
2018-11-01T08:46:09.673Z,12.27
2018-11-01T08:48:40.385Z,12.26
2018-11-01T08:51:11.129Z,12.25
2018-11-01T08:53:42.014Z,12.27
2018-11-01T08:56:12.660Z,12.28
2018-11-01T08:58:43.383Z,12.29
2018-11-01T09:01:14.133Z,12.31
2018-11-01T09:03:44.785Z,12.31
2018-11-01T09:06:15.447Z,12.41
2018-11-01T09:08:46.187Z,12.43
2018-11-01T09:11:17.356Z,12.45
2018-11-01T09:13:48.035Z,12.38
2018-11-01T09:16:18.715Z,12.32
2018-11-01T09:18:49.496Z,12.31
2018-11-01T09:21:20.159Z,12.33
2018-11-01T09:23:50.907Z,12.36
2018-11-01T09:26:21.576Z,12.37
2018-11-01T09:28:52.304Z,12.39
2018-11-01T09:31:23.059Z,12.36
2018-11-01T09:33:53.812Z,12.32
2018-11-01T09:36:24.516Z,12.34
2018-11-01T09:38:55.225Z,12.31
2018-11-01T09:41:25.976Z,12.29
2018-11-01T09:43:56.692Z,12.29
2018-11-01T09:46:28.036Z,12.28
2018-11-01T09:48:58.667Z,12.29
2018-11-01T09:51:29.471Z,12.32
2018-11-01T09:54:00.236Z,12.36
2018-11-01T09:56:31.224Z,12.37
2018-11-01T09:59:01.914Z,12.38
2018-11-01T10:01:32.699Z,12.41
2018-11-01T10:04:03.421Z,12.45
2018-11-01T10:06:34.291Z,12.50
2018-11-01T10:09:06.416Z,12.51
2018-11-01T10:11:37.266Z,12.63
2018-11-01T10:14:08.838Z,12.60
2018-11-01T10:16:40.002Z,12.67
2018-11-01T10:19:11.341Z,12.72
2018-11-01T10:21:42.154Z,12.84
2018-11-01T10:24:13.005Z,12.87
2018-11-01T10:26:43.686Z,12.76
2018-11-01T10:29:14.379Z,12.74
2018-11-01T10:31:45.157Z,12.65
2018-11-01T10:34:16.377Z,12.59
2018-11-01T10:36:47.195Z,12.62
2018-11-01T10:39:18.025Z,12.66
2018-11-01T10:41:48.738Z,12.74
2018-11-01T10:44:19.557Z,12.75
2018-11-01T10:46:50.263Z,12.83
2018-11-01T10:49:20.976Z,12.85
2018-11-01T10:51:51.744Z,12.85
2018-11-01T10:54:22.495Z,12.94
2018-11-01T10:56:53.246Z,12.91
2018-11-01T10:59:24.046Z,12.97
2018-11-01T11:01:59.949Z,12.99
2018-11-01T11:04:30.666Z,12.97
2018-11-01T11:07:01.350Z,13.01
2018-11-01T11:09:32.036Z,13.01
2018-11-01T11:12:02.855Z,13.11
2018-11-01T11:14:33.624Z,13.11
2018-11-01T11:17:04.282Z,13.10
2018-11-01T11:19:35.080Z,13.06
2018-11-01T11:22:05.920Z,12.96
2018-11-01T11:24:36.615Z,12.92
2018-11-01T11:27:08.082Z,12.89
2018-11-01T11:29:38.827Z,12.87
2018-11-01T11:32:09.667Z,12.87
2018-11-01T11:34:40.454Z,12.87
2018-11-01T11:37:11.198Z,12.89
2018-11-01T11:39:42.012Z,12.95
2018-11-01T11:42:12.694Z,13.05
2018-11-01T11:44:43.505Z,13.01
2018-11-01T11:47:14.305Z,13.07
2018-11-01T11:49:45.049Z,13.21
2018-11-01T11:52:15.865Z,13.11
2018-11-01T11:54:46.674Z,13.06
2018-11-01T11:57:17.511Z,13.07
2018-11-01T11:59:48.428Z,13.06
2018-11-01T12:02:19.210Z,13.22
2018-11-01T12:04:49.836Z,13.20
2018-11-01T12:07:20.496Z,13.07
2018-11-01T12:09:51.436Z,13.03
2018-11-01T12:12:22.159Z,13.08
2018-11-01T12:14:52.961Z,13.14
2018-11-01T12:17:23.845Z,13.12
2018-11-01T12:19:54.641Z,13.07
2018-11-01T12:22:25.465Z,13.04
2018-11-01T12:24:56.180Z,12.93
2018-11-01T12:27:26.912Z,12.82
2018-11-01T12:29:57.720Z,12.90
2018-11-01T12:32:28.705Z,12.87
2018-11-01T12:34:59.658Z,12.77
2018-11-01T12:37:30.408Z,12.74
2018-11-01T12:40:01.141Z,12.75
2018-11-01T12:42:31.941Z,12.81
2018-11-01T12:45:02.715Z,12.78
2018-11-01T12:47:33.558Z,12.73
2018-11-01T12:50:05.004Z,12.72
2018-11-01T12:52:35.795Z,12.75
2018-11-01T12:55:06.664Z,12.77
2018-11-01T12:57:37.580Z,12.76
2018-11-01T13:00:11.579Z,12.75
2018-11-01T13:02:42.492Z,12.82
2018-11-01T13:05:13.148Z,12.83
2018-11-01T13:07:43.899Z,12.82
2018-11-01T13:10:14.700Z,12.76
2018-11-01T13:12:45.453Z,12.73
2018-11-01T13:15:16.211Z,12.70
2018-11-01T13:17:47.091Z,12.73
2018-11-01T13:20:17.954Z,12.81
2018-11-01T13:22:48.857Z,12.77
2018-11-01T13:25:19.706Z,12.82
2018-11-01T13:27:50.633Z,12.69
2018-11-01T13:30:21.517Z,12.67
2018-11-01T13:32:52.513Z,12.70
2018-11-01T13:35:23.418Z,12.72
2018-11-01T13:37:54.104Z,12.68
2018-11-01T13:40:25.149Z,12.70
2018-11-01T13:42:55.880Z,12.54
2018-11-01T13:45:49.420Z,12.42
2018-11-01T13:48:20.523Z,12.32
2018-11-01T13:50:52.371Z,12.20
2018-11-01T13:53:23.326Z,12.36
2018-11-01T13:55:54.238Z,12.31
2018-11-01T13:58:25.059Z,12.22
2018-11-01T14:00:55.936Z,12.11
2018-11-01T14:03:26.719Z,12.04
2018-11-01T14:05:57.464Z,12.02
2018-11-01T14:08:28.139Z,11.93
2018-11-01T14:10:58.885Z,11.84
2018-11-01T14:13:29.760Z,11.78
2018-11-01T14:16:00.380Z,11.75
2018-11-01T14:18:31.150Z,11.68
2018-11-01T14:21:01.892Z,11.66
2018-11-01T14:23:32.583Z,11.60
2018-11-01T14:26:03.307Z,11.50
2018-11-01T14:28:33.963Z,11.43
2018-11-01T14:31:04.765Z,11.35
2018-11-01T14:33:35.421Z,11.27
2018-11-01T14:36:07.475Z,11.28
2018-11-01T14:38:38.358Z,11.19
2018-11-01T14:41:09.163Z,10.99
2018-11-01T14:43:39.852Z,11.07
2018-11-01T14:46:10.614Z,10.85
2018-11-01T14:48:41.357Z,10.91
2018-11-01T14:51:12.074Z,10.86
2018-11-01T14:53:42.857Z,10.75
2018-11-01T14:56:14.280Z,10.78
2018-11-01T14:58:45.933Z,10.71
2018-11-01T15:01:14.876Z,10.78
2018-11-01T15:03:45.652Z,10.75
2018-11-01T15:06:16.328Z,10.77
2018-11-01T15:08:47.064Z,10.67
2018-11-01T15:11:17.724Z,10.66
2018-11-01T15:13:48.403Z,10.59
2018-11-01T15:16:19.126Z,10.53
2018-11-01T15:18:50.110Z,10.49
2018-11-01T15:21:20.751Z,10.46
2018-11-01T15:23:51.481Z,10.43
2018-11-01T15:26:22.223Z,10.44
2018-11-01T15:28:52.865Z,10.39
2018-11-01T15:31:23.495Z,10.29
2018-11-01T15:33:54.237Z,10.31
2018-11-01T15:36:25.181Z,10.26
2018-11-01T15:38:55.940Z,10.22
2018-11-01T15:41:26.619Z,10.19
2018-11-01T15:43:57.299Z,10.16
2018-11-01T15:46:28.063Z,10.15
2018-11-01T15:48:58.795Z,10.11
2018-11-01T15:51:29.477Z,10.14
2018-11-01T15:54:00.250Z,10.04
2018-11-01T15:56:30.907Z,10.12
2018-11-01T15:59:01.631Z,10.03
2018-11-01T16:01:32.330Z,9.95
2018-11-01T16:04:03.175Z,9.98
2018-11-01T16:06:33.802Z,10.00
2018-11-01T16:09:05.827Z,9.96
2018-11-01T16:11:36.504Z,9.96
2018-11-01T16:14:07.204Z,9.90
2018-11-01T16:16:38.059Z,9.88
2018-11-01T16:19:09.476Z,9.84
2018-11-01T16:21:40.781Z,9.88
2018-11-01T16:24:11.445Z,9.84
2018-11-01T16:26:42.147Z,9.78
2018-11-01T16:29:13.325Z,9.83
2018-11-01T16:31:44.025Z,9.79
2018-11-01T16:34:14.724Z,9.77
2018-11-01T16:36:45.428Z,9.80
2018-11-01T16:39:16.213Z,9.76
2018-11-01T16:41:46.866Z,9.74
2018-11-01T16:44:17.522Z,9.65
2018-11-01T16:46:48.240Z,9.71
2018-11-01T16:49:18.901Z,9.68
2018-11-01T16:51:49.512Z,9.65
2018-11-01T16:54:20.220Z,9.65
2018-11-01T16:56:50.908Z,9.73
2018-11-01T16:59:21.627Z,9.70
2018-11-01T17:01:52.359Z,9.72
2018-11-01T17:04:23.014Z,9.75
2018-11-01T17:06:53.723Z,9.78
2018-11-01T17:09:24.392Z,9.74
2018-11-01T17:11:55.147Z,9.71
2018-11-01T17:14:25.820Z,9.69
2018-11-01T17:16:56.489Z,9.69
2018-11-01T17:19:27.117Z,9.71
2018-11-01T17:21:57.794Z,9.65
2018-11-01T17:24:28.456Z,9.69
2018-11-01T17:26:59.319Z,9.68
2018-11-01T17:29:30.008Z,9.72
2018-11-01T17:32:00.759Z,9.72
2018-11-01T17:34:31.407Z,9.74
2018-11-01T17:37:02.050Z,9.76
2018-11-01T17:39:32.812Z,9.78
2018-11-01T17:42:03.503Z,9.79
2018-11-01T17:44:34.157Z,9.75
2018-11-01T17:47:04.895Z,9.76
2018-11-01T17:49:35.592Z,9.82
2018-11-01T17:52:06.406Z,9.83
2018-11-01T17:54:37.109Z,9.80
2018-11-01T17:57:07.907Z,9.77
2018-11-01T17:59:38.579Z,9.77
2018-11-01T18:02:09.602Z,9.82
2018-11-01T18:04:40.333Z,9.81
2018-11-01T18:07:11.027Z,9.90
2018-11-01T18:09:41.725Z,9.84
2018-11-01T18:12:12.499Z,9.85
2018-11-01T18:14:43.217Z,9.87
2018-11-01T18:17:13.891Z,9.84
2018-11-01T18:19:44.578Z,9.82
2018-11-01T18:22:18.042Z,9.85
2018-11-01T18:24:48.681Z,9.80
2018-11-01T18:27:19.379Z,9.83
2018-11-01T18:29:50.047Z,9.81
2018-11-01T18:32:20.805Z,9.88
2018-11-01T18:34:51.469Z,9.92
2018-11-01T18:37:22.096Z,9.88
2018-11-01T18:39:52.755Z,9.92
2018-11-01T18:42:23.551Z,9.99
2018-11-01T18:44:54.182Z,9.99
2018-11-01T18:47:24.909Z,10.01
2018-11-01T18:49:55.615Z,10.02
2018-11-01T18:52:26.383Z,10.00
2018-11-01T18:54:57.272Z,10.00
2018-11-01T18:57:27.957Z,10.03
2018-11-01T18:59:58.617Z,10.04
2018-11-01T19:02:29.323Z,9.99
2018-11-01T19:05:00.099Z,10.05
2018-11-01T19:07:30.966Z,10.04
2018-11-01T19:10:01.662Z,10.08
2018-11-01T19:12:32.668Z,10.06
2018-11-01T19:15:03.428Z,10.06
2018-11-01T19:17:34.073Z,10.03
2018-11-01T19:20:05.665Z,10.05
2018-11-01T19:22:36.953Z,10.04
2018-11-01T19:25:08.477Z,10.00
2018-11-01T19:27:39.325Z,9.98
2018-11-01T19:30:12.153Z,10.06
2018-11-01T19:32:43.208Z,10.01
2018-11-01T19:35:14.423Z,10.02
2018-11-01T19:37:45.135Z,10.02
2018-11-01T19:40:16.613Z,10.02
2018-11-01T19:42:47.192Z,10.01
2018-11-01T19:45:18.003Z,10.03
2018-11-01T19:47:48.838Z,10.01
2018-11-01T19:50:19.709Z,10.04
2018-11-01T19:52:50.523Z,10.08
2018-11-01T19:55:21.160Z,10.04
2018-11-01T19:57:51.858Z,10.06
2018-11-01T20:00:22.572Z,10.08
2018-11-01T20:02:53.353Z,10.07
2018-11-01T20:05:24.011Z,10.06
2018-11-01T20:07:54.710Z,10.11
2018-11-01T20:10:25.503Z,10.09
2018-11-01T20:12:56.154Z,10.14
2018-11-01T20:15:26.855Z,10.15
2018-11-01T20:17:57.629Z,10.15
2018-11-01T20:20:28.363Z,10.16
2018-11-01T20:22:59.073Z,10.24
2018-11-01T20:25:29.786Z,10.24
2018-11-01T20:28:00.411Z,10.26
2018-11-01T20:30:31.077Z,10.32
2018-11-01T20:33:01.760Z,10.31
2018-11-01T20:35:32.407Z,10.32
2018-11-01T20:38:03.169Z,10.38
2018-11-01T20:40:33.919Z,10.40
2018-11-01T20:43:04.673Z,10.42
2018-11-01T20:45:35.304Z,10.41
2018-11-01T20:48:06.533Z,10.47
2018-11-01T20:50:37.223Z,10.47
2018-11-01T20:53:07.929Z,10.48
2018-11-01T20:55:38.586Z,10.48
2018-11-01T20:58:09.323Z,10.51
2018-11-01T21:00:40.054Z,10.48
2018-11-01T21:03:10.835Z,10.47
2018-11-01T21:05:41.498Z,10.46
2018-11-01T21:08:12.320Z,10.46
2018-11-01T21:10:43.131Z,10.44
2018-11-01T21:13:13.824Z,10.48
2018-11-01T21:15:44.520Z,10.52
2018-11-01T21:18:15.339Z,10.51
2018-11-01T21:20:46.090Z,10.49
2018-11-01T21:23:16.965Z,10.46
2018-11-01T21:25:47.688Z,10.49
2018-11-01T21:28:18.782Z,10.54
2018-11-01T21:30:51.809Z,10.59
2018-11-01T21:33:22.937Z,10.57
2018-11-01T21:35:53.858Z,10.57
2018-11-01T21:38:24.629Z,10.59
2018-11-01T21:40:55.506Z,10.60
2018-11-01T21:43:26.819Z,10.65
2018-11-01T21:45:57.731Z,10.62
2018-11-01T21:48:30.614Z,10.63
2018-11-01T21:51:01.343Z,10.64
2018-11-01T21:53:32.260Z,10.65
2018-11-01T21:56:04.688Z,10.70
2018-11-01T21:58:35.605Z,10.72
2018-11-01T22:01:06.786Z,10.64
2018-11-01T22:03:37.850Z,10.75
2018-11-01T22:06:09.257Z,10.80
2018-11-01T22:08:40.151Z,10.78
2018-11-01T22:11:11.139Z,10.83
2018-11-01T22:13:42.232Z,10.85
2018-11-01T22:16:14.135Z,10.82
2018-11-01T22:18:45.032Z,10.90
2018-11-01T22:21:15.985Z,10.94
2018-11-01T22:23:46.883Z,10.95
2018-11-01T22:26:17.803Z,10.98
2018-11-01T22:28:48.944Z,10.99
2018-11-01T22:31:19.647Z,11.00
2018-11-01T22:33:51.466Z,11.06
2018-11-01T22:36:23.559Z,11.16
2018-11-01T22:38:54.679Z,11.19
2018-11-01T22:41:25.572Z,11.20
2018-11-01T22:43:56.422Z,11.21
2018-11-01T22:46:27.272Z,11.23
2018-11-01T22:48:58.069Z,11.24
2018-11-01T22:51:29.034Z,11.29
2018-11-01T22:54:00.512Z,11.33
2018-11-01T22:56:31.407Z,11.32
2018-11-01T22:59:02.438Z,11.40
2018-11-01T23:01:33.316Z,11.40
2018-11-01T23:04:04.402Z,11.36
2018-11-01T23:06:36.731Z,11.37
2018-11-01T23:09:09.908Z,11.36
2018-11-01T23:11:41.067Z,11.31
2018-11-01T23:14:11.787Z,11.33
2018-11-01T23:16:42.469Z,11.30
2018-11-01T23:19:13.467Z,11.26
2018-11-01T23:21:44.103Z,11.20
2018-11-01T23:24:14.773Z,11.19
2018-11-01T23:26:45.422Z,11.27
2018-11-01T23:29:16.154Z,11.22
2018-11-01T23:31:46.939Z,11.24
2018-11-01T23:34:17.553Z,11.19
2018-11-01T23:36:53.600Z,11.22
2018-11-01T23:39:29.424Z,11.25
2018-11-01T23:42:05.355Z,11.20
2018-11-01T23:44:41.417Z,11.26
2018-11-01T23:47:17.256Z,11.25
2018-11-01T23:49:54.614Z,11.24
2018-11-01T23:52:26.502Z,11.24
2018-11-01T23:54:57.272Z,11.23
2018-11-01T23:57:28.411Z,11.18
